Time;durP1;ratioP1;P1;durP2;ratioP2;P2;SDS_P1;SDS_P2;PMS_P1;PMS_P2;Temp;Humidity;BMP_temperature;BMP_pressure;BME280_temperature;BME280_humidity;BME280_pressure;Samples;Min_cycle;Max_cycle;Signal;HPM_P1;HPM_P2
2022/12/09 00:01:10;;;;;;;51.95;25.48;;;;;;;-0.94;95.92;99631.00;1703067;84;27948;-54
2022/12/09 00:03:37;;;;;;;47.08;25.52;;;;;;;-0.94;95.92;99628.34;1708299;84;25651;-56
2022/12/09 00:06:10;;;;;;;53.68;26.55;;;;;;;-0.95;95.84;99630.75;1704017;84;25375;-57
2022/12/09 00:08:37;;;;;;;52.30;26.35;;;;;;;-0.94;95.81;99633.66;1703072;83;25478;-56
2022/12/09 00:11:05;;;;;;;51.42;26.48;;;;;;;-0.96;95.73;99631.25;1703105;84;25646;-57
2022/12/09 00:13:31;;;;;;;46.18;23.15;;;;;;;-0.95;95.76;99624.11;1703068;84;27332;-56
2022/12/09 00:15:57;;;;;;;50.25;26.60;;;;;;;-0.95;96.00;99632.86;1684174;84;25582;-56
2022/12/09 00:18:24;;;;;;;46.75;23.18;;;;;;;-0.95;96.05;99625.44;1703041;84;25586;-58
2022/12/09 00:20:51;;;;;;;55.73;26.68;;;;;;;-0.95;96.12;99632.86;1684538;84;25466;-57
2022/12/09 00:23:17;;;;;;;49.58;24.63;;;;;;;-0.96;96.07;99628.59;1703234;83;25376;-58
2022/12/09 00:25:44;;;;;;;48.60;25.43;;;;;;;-0.95;96.21;99624.11;1703174;83;27319;-56
2022/12/09 00:28:10;;;;;;;50.28;26.90;;;;;;;-0.95;96.27;99627.55;1703088;83;25577;-55
2022/12/09 00:30:36;;;;;;;49.00;26.30;;;;;;;-0.95;96.24;99626.23;1684587;84;25609;-56
2022/12/09 00:33:03;;;;;;;50.45;26.02;;;;;;;-0.94;96.17;99620.38;1703101;83;33617;-54
2022/12/09 00:35:29;;;;;;;54.53;26.87;;;;;;;-0.94;96.15;99625.69;1703229;84;25577;-55
2022/12/09 00:37:55;;;;;;;52.40;25.80;;;;;;;-0.95;96.12;99632.07;1703247;83;27267;-57
2022/12/09 00:40:21;;;;;;;48.73;25.67;;;;;;;-0.95;95.89;99626.77;1703190;83;27382;-57
2022/12/09 00:42:48;;;;;;;49.15;25.02;;;;;;;-0.97;95.93;99634.15;1703244;83;25605;-56
2022/12/09 00:45:14;;;;;;;54.42;26.87;;;;;;;-0.99;95.90;99634.42;1703104;82;25506;-58
2022/12/09 00:47:40;;;;;;;54.77;27.75;;;;;;;-0.99;95.69;99645.05;1703192;84;25399;-57
2022/12/09 00:50:09;;;;;;;53.78;27.00;;;;;;;-1.01;95.81;99637.03;1703177;84;27323;-58
2022/12/09 00:52:35;;;;;;;36.93;19.20;;;;;;;-0.96;95.81;99649.04;1703381;84;25600;-57
2022/12/09 00:55:01;;;;;;;52.62;26.52;;;;;;;-0.96;95.81;99649.04;1703140;83;25479;-56
2022/12/09 00:57:27;;;;;;;59.53;26.27;;;;;;;-1.07;95.50;99641.49;1703155;83;25652;-56
2022/12/09 00:59:53;;;;;;;51.18;26.55;;;;;;;-1.08;95.63;99633.23;1703226;83;32057;-58
2022/12/09 01:02:19;;;;;;;47.70;24.50;;;;;;;-1.10;95.44;99634.55;1703208;83;27333;-58
2022/12/09 01:04:51;;;;;;;48.73;25.15;;;;;;;-1.13;95.39;99633.97;1703070;83;25476;-57
2022/12/09 01:07:17;;;;;;;53.63;26.35;;;;;;;-1.13;95.60;99626.02;1703233;84;25614;-57
2022/12/09 01:09:43;;;;;;;49.10;24.02;;;;;;;-1.13;95.63;99624.69;1703098;83;25599;-58
2022/12/09 01:12:09;;;;;;;46.55;23.18;;;;;;;-1.13;95.61;99625.22;1684818;84;25440;-58
2022/12/09 01:14:36;;;;;;;53.40;26.43;;;;;;;-1.16;95.78;99613.77;1703173;83;27374;-58
2022/12/09 01:17:02;;;;;;;49.70;25.68;;;;;;;-1.17;96.00;99622.27;1703068;83;25378;-55
2022/12/09 01:19:28;;;;;;;38.90;21.52;;;;;;;-1.17;95.95;99620.94;1703139;83;25390;-57
2022/12/09 01:21:54;;;;;;;54.65;25.60;;;;;;;-1.18;96.00;99627.28;1703115;83;25617;-58
2022/12/09 01:24:21;;;;;;;55.20;25.27;;;;;;;-1.20;96.02;99625.41;1703137;84;25447;-57
2022/12/09 01:26:48;;;;;;;52.00;25.88;;;;;;;-1.21;96.15;99623.81;1703160;83;27466;-56
2022/12/09 01:29:14;;;;;;;44.80;22.93;;;;;;;-1.20;96.27;99625.41;1703046;83;25609;-58
2022/12/09 01:31:41;;;;;;;51.05;25.88;;;;;;;-1.21;96.35;99622.99;1703082;83;25426;-57
2022/12/09 01:34:07;;;;;;;52.90;26.37;;;;;;;-1.19;96.25;99621.71;1703127;83;25581;-58
2022/12/09 01:36:33;;;;;;;52.03;25.53;;;;;;;-1.21;96.25;99617.69;1703174;83;32560;-58
2022/12/09 01:38:59;;;;;;;54.35;27.07;;;;;;;-1.21;96.26;99612.37;1703118;83;27266;-58
2022/12/09 01:41:27;;;;;;;49.38;26.57;;;;;;;-1.23;96.25;99615.28;1703101;83;25489;-56
2022/12/09 01:44:25;;;;;;;46.15;23.15;;;;;;;-1.22;95.91;99620.08;1703156;84;25557;-57
2022/12/09 01:46:58;;;;;;;47.05;23.70;;;;;;;-1.25;95.84;99616.05;1703134;83;25657;-55
2022/12/09 01:49:41;;;;;;;60.50;27.73;;;;;;;-1.25;96.08;99617.38;1703207;84;25585;-57
2022/12/09 01:52:21;;;;;;;50.48;23.85;;;;;;;-1.25;96.25;99622.69;1717061;83;27333;-58
2022/12/09 01:54:50;;;;;;;50.08;25.50;;;;;;;-1.23;96.35;99618.47;1712957;83;25596;-57
2022/12/09 01:57:18;;;;;;;52.65;25.32;;;;;;;-1.25;96.33;99609.95;1713133;83;25396;-55
2022/12/09 01:59:45;;;;;;;49.65;25.17;;;;;;;-1.25;96.33;99616.59;1692494;83;25639;-56
2022/12/09 02:02:15;;;;;;;49.42;26.73;;;;;;;-1.25;96.36;99613.41;1713077;83;25431;-55
2022/12/09 02:04:46;;;;;;;51.20;25.30;;;;;;;-1.26;96.40;99610.98;1713058;83;28008;-58
2022/12/09 02:07:12;;;;;;;52.85;26.02;;;;;;;-1.26;96.38;99613.14;1716259;83;25484;-58
2022/12/09 02:09:40;;;;;;;54.70;25.40;;;;;;;-1.27;96.36;99604.89;1713032;83;25483;-57
2022/12/09 02:12:18;;;;;;;52.55;26.93;;;;;;;-1.29;96.21;99600.36;1712973;83;25550;-57
2022/12/09 02:14:55;;;;;;;54.18;27.10;;;;;;;-1.30;96.26;99604.59;1712879;83;25626;-58
2022/12/09 02:17:33;;;;;;;50.70;25.55;;;;;;;-1.30;96.28;99607.24;1658798;85;27318;-54
2022/12/09 02:20:25;;;;;;;50.50;24.32;;;;;;;-1.30;96.28;99605.37;1658742;86;25683;-56
2022/12/09 02:23:35;;;;;;;47.55;23.55;;;;;;;-1.33;96.37;99600.56;1655680;86;25784;-58
2022/12/09 02:26:28;;;;;;;50.28;25.92;;;;;;;-1.34;96.29;99597.65;1658993;85;25926;-57
2022/12/09 02:29:09;;;;;;;52.05;24.92;;;;;;;-1.35;96.15;99600.02;1658499;86;25696;-58
2022/12/09 02:32:16;;;;;;;55.30;26.87;;;;;;;-1.38;96.23;99601.83;1657057;86;26945;-57
2022/12/09 02:34:48;;;;;;;49.42;24.27;;;;;;;-1.40;96.25;99598.63;1656190;86;27203;-56
2022/12/09 02:37:30;;;;;;;50.12;23.22;;;;;;;-1.44;96.37;99598.31;1653338;86;25621;-57
2022/12/09 02:40:05;;;;;;;45.43;22.48;;;;;;;-1.42;96.26;99598.08;1600938;89;25496;-56
2022/12/09 02:42:35;;;;;;;50.12;24.35;;;;;;;-1.45;96.12;99594.58;1577459;89;26591;-57
2022/12/09 02:45:04;;;;;;;;;;;;;;;-1.48;96.07;99602.52;1582633;90;28097;-55
2022/12/09 02:47:35;;;;;;;48.25;23.60;;;;;;;-1.49;96.11;99602.23;1580379;90;28835;-57
2022/12/09 02:50:07;;;;;;;52.48;24.18;;;;;;;-1.50;96.23;99609.90;1599722;89;25695;-57
2022/12/09 02:52:35;;;;;;;49.50;24.52;;;;;;;-1.52;96.31;99606.16;1580311;90;25591;-57
2022/12/09 02:55:06;;;;;;;51.75;24.80;;;;;;;-1.51;96.51;99607.78;1638064;86;25461;-56
2022/12/09 02:57:36;;;;;;;51.85;25.32;;;;;;;-1.49;96.57;99606.75;1656331;86;27355;-57
2022/12/09 03:00:06;;;;;;;51.88;24.67;;;;;;;-1.50;96.55;99607.25;1656220;86;25520;-57
2022/12/09 03:02:39;;;;;;;50.88;25.17;;;;;;;-1.50;96.56;99609.90;1656082;86;25694;-57
2022/12/09 03:05:39;;;;;;;51.10;25.48;;;;;;;-1.53;96.55;99603.78;1655161;86;25755;-56
2022/12/09 03:08:23;;;;;;;53.78;24.12;;;;;;;-1.53;96.51;99607.23;1656207;86;25593;-56
2022/12/09 03:11:12;;;;;;;51.58;25.15;;;;;;;-1.52;96.54;99608.02;1655380;86;27354;-57
2022/12/09 03:14:13;;;;;;;50.43;23.85;;;;;;;-1.53;96.53;99604.58;1656007;86;25637;-58
2022/12/09 03:16:56;;;;;;;50.73;24.10;;;;;;;-1.54;96.72;99599.52;1667838;84;25559;-57
2022/12/09 03:19:44;;;;;;;53.65;24.80;;;;;;;-1.54;96.67;99600.30;1712579;83;25881;-57
2022/12/09 03:22:16;;;;;;;49.30;24.77;;;;;;;-1.54;96.58;99596.86;1713039;83;25576;-57
2022/12/09 03:25:03;;;;;;;54.18;25.50;;;;;;;-1.56;96.52;99594.98;1712960;83;29474;-58
2022/12/09 03:27:40;;;;;;;52.30;25.02;;;;;;;-1.56;96.49;99600.29;1660675;86;25448;-59
2022/12/09 03:30:10;;;;;;;50.12;25.12;;;;;;;-1.56;96.64;99594.45;1627853;88;25735;-58
2022/12/09 03:32:37;;;;;;;;;;;;;;;-1.54;96.66;99588.91;1660894;85;25594;-58
2022/12/09 03:35:21;;;;;;;50.55;24.70;;;;;;;-1.53;96.80;99589.98;1641175;87;25712;-59
2022/12/09 03:37:50;;;;;;;51.20;24.63;;;;;;;-1.52;96.90;99588.92;1655077;86;27326;-56
2022/12/09 03:40:22;;;;;;;30.95;15.80;;;;;;;-1.52;96.78;99586.80;1655101;86;25731;-54
2022/12/09 03:43:11;;;;;;;48.68;23.92;;;;;;;-1.51;96.80;99600.36;1655095;86;25559;-56
2022/12/09 03:45:39;;;;;;;54.53;24.85;;;;;;;-1.51;96.84;99593.72;1618158;87;25747;-53
2022/12/09 03:48:07;;;;;;;51.25;23.80;;;;;;;-1.51;97.01;99585.77;1655035;86;25450;-54
2022/12/09 03:50:42;;;;;;;58.08;24.98;;;;;;;-1.52;97.04;99587.59;1655033;86;27303;-53
2022/12/09 03:53:19;;;;;;;51.42;24.67;;;;;;;-1.49;97.02;99586.84;1654967;86;25695;-54
2022/12/09 03:56:06;;;;;;;53.48;25.52;;;;;;;-1.49;96.99;99590.30;1655155;86;25656;-58
2022/12/09 03:58:36;;;;;;;55.65;25.62;;;;;;;-1.48;97.03;99597.22;1654895;86;25472;-57
2022/12/09 04:01:03;;;;;;;;;;;;;;;-1.48;97.09;99590.59;1635283;86;25473;-57
2022/12/09 04:03:29;;;;;;;48.23;23.32;;;;;;;-1.48;97.05;99585.78;1634107;83;29615;-57
2022/12/09 04:05:55;;;;;;;47.38;23.57;;;;;;;-1.47;97.00;99584.75;1687472;84;25669;-57
2022/12/09 04:08:21;;;;;;;49.73;23.95;;;;;;;-1.47;97.01;99575.46;1706762;84;25474;-57
2022/12/09 04:10:47;;;;;;;52.08;25.25;;;;;;;-1.46;97.02;99581.03;1706713;83;25569;-57
2022/12/09 04:13:13;;;;;;;55.40;26.17;;;;;;;-1.46;97.11;99581.03;1706795;84;25592;-56
2022/12/09 04:15:40;;;;;;;57.23;25.00;;;;;;;-1.44;97.24;99587.70;1706777;83;27354;-55
2022/12/09 04:18:06;;;;;;;53.58;26.75;;;;;;;-1.42;97.37;99584.81;1706641;83;25615;-54
2022/12/09 04:20:32;;;;;;;54.27;25.27;;;;;;;-1.39;97.55;99584.32;1706722;84;25442;-58
2022/12/09 04:22:59;;;;;;;51.80;24.02;;;;;;;-1.37;97.56;99575.05;1706714;84;25628;-57
2022/12/09 04:25:25;;;;;;;56.50;26.45;;;;;;;-1.36;97.52;99583.83;1706762;83;25411;-57
2022/12/09 04:27:52;;;;;;;47.78;24.30;;;;;;;-1.34;97.51;99583.84;1706736;83;27440;-56
2022/12/09 04:30:18;;;;;;;61.85;27.50;;;;;;;-1.30;97.61;99589.45;1706668;84;25857;-57
2022/12/09 04:32:45;;;;;;;57.65;25.00;;;;;;;-1.27;97.60;99585.52;1708624;83;25665;-58
2022/12/09 04:35:11;;;;;;;57.25;25.72;;;;;;;-1.25;97.62;99580.23;1703985;83;25568;-58
2022/12/09 04:37:37;;;;;;;52.93;26.12;;;;;;;-1.23;97.64;99584.76;1724680;83;25626;-57
2022/12/09 04:40:08;;;;;;;52.40;24.95;;;;;;;-1.19;97.71;99586.39;1724691;82;27400;-57
2022/12/09 04:42:34;;;;;;;54.98;26.82;;;;;;;-1.18;97.60;99584.02;1724638;83;25584;-58
2022/12/09 04:45:01;;;;;;;51.02;26.37;;;;;;;-1.18;97.53;99580.04;1724668;83;25490;-58
2022/12/09 04:47:27;;;;;;;53.25;25.85;;;;;;;-1.17;97.52;99586.43;1702447;83;25626;-58
2022/12/09 04:49:53;;;;;;;51.02;24.85;;;;;;;-1.14;97.53;99587.80;1727342;82;25461;-56
2022/12/09 04:52:20;;;;;;;53.58;26.82;;;;;;;-1.16;97.26;99589.37;1727258;83;27397;-57
2022/12/09 04:54:49;;;;;;;54.93;28.07;;;;;;;-1.18;97.12;99586.67;1727182;83;25702;-57
2022/12/09 04:57:18;;;;;;;48.38;25.05;;;;;;;-1.18;96.95;99587.47;1727470;83;25408;-57
2022/12/09 04:59:44;;;;;;;51.20;26.67;;;;;;;-1.19;96.72;99589.86;1727487;83;25531;-55
2022/12/09 05:02:11;;;;;;;53.40;25.88;;;;;;;-1.21;96.70;99591.97;1727273;83;25438;-54
2022/12/09 05:04:41;;;;;;;48.95;24.67;;;;;;;-1.24;96.52;99585.83;1694672;83;27861;-54
2022/12/09 05:07:08;;;;;;;59.75;27.67;;;;;;;-1.26;96.29;99591.09;1724725;83;25609;-58
2022/12/09 05:09:34;;;;;;;50.35;25.75;;;;;;;-1.29;96.25;99584.44;1724655;83;25571;-57
2022/12/09 05:12:00;;;;;;;53.98;25.77;;;;;;;-1.30;96.18;99595.30;1724624;83;34220;-58
2022/12/09 05:14:26;;;;;;;56.33;26.15;;;;;;;-1.34;96.06;99585.17;1724668;83;25588;-58
2022/12/09 05:16:52;;;;;;;48.00;24.35;;;;;;;-1.37;96.02;99586.98;1691824;83;27226;-54
2022/12/09 05:19:19;;;;;;;52.00;24.90;;;;;;;-1.39;95.92;99584.32;1724565;83;29005;-57
2022/12/09 05:21:45;;;;;;;48.50;24.65;;;;;;;-1.40;95.95;99592.78;1724650;83;25645;-54
2022/12/09 05:24:11;;;;;;;51.15;22.77;;;;;;;-1.44;95.65;99590.36;1724616;83;25576;-57
2022/12/09 05:26:38;;;;;;;49.05;24.55;;;;;;;-1.48;95.20;99591.09;1724648;83;25610;-55
2022/12/09 05:29:04;;;;;;;47.43;23.00;;;;;;;-1.57;94.86;99582.77;1724596;83;27350;-58
2022/12/09 05:31:31;;;;;;;45.25;21.60;;;;;;;-1.58;95.11;99587.27;1724579;83;25590;-58
2022/12/09 05:33:58;;;;;;;59.93;23.67;;;;;;;-1.59;95.56;99586.19;1719999;82;25398;-58
2022/12/09 05:36:26;;;;;;;50.20;24.05;;;;;;;-1.62;95.65;99582.16;1714829;83;25565;-57
2022/12/09 05:38:54;;;;;;;50.95;23.77;;;;;;;-1.64;95.44;99582.14;1690287;83;25623;-59
2022/12/09 05:41:23;;;;;;;45.48;22.75;;;;;;;-1.69;95.16;99584.20;1714926;83;28073;-59
2022/12/09 05:43:51;;;;;;;44.27;22.27;;;;;;;-1.75;95.00;99582.55;1714820;83;25682;-59
2022/12/09 05:46:19;;;;;;;54.98;23.20;;;;;;;-1.77;95.02;99587.27;1714850;83;25212;-59
2022/12/09 05:48:46;;;;;;;53.52;23.87;;;;;;;-1.79;95.32;99588.83;1714870;83;25647;-58
2022/12/09 05:51:26;;;;;;;52.70;23.57;;;;;;;-1.81;95.52;99583.51;1714841;83;25457;-58
2022/12/09 05:53:55;;;;;;;47.60;21.85;;;;;;;-1.82;95.53;99590.67;1714864;83;27332;-58
2022/12/09 05:56:24;;;;;;;47.03;22.93;;;;;;;-1.83;95.85;99586.94;1714954;83;25461;-59
2022/12/09 05:58:53;;;;;;;32.60;15.70;;;;;;;-1.84;95.94;99590.09;1715027;82;25599;-59
2022/12/09 06:01:22;;;;;;;50.60;22.20;;;;;;;-1.85;95.91;99584.52;1714922;83;27454;-59
2022/12/09 06:03:51;;;;;;;47.03;22.57;;;;;;;-1.88;96.06;99585.80;1715127;83;25517;-57
2022/12/09 06:06:21;;;;;;;48.20;22.65;;;;;;;-1.86;96.00;99585.56;1714923;83;27343;-59
2022/12/09 06:08:49;;;;;;;44.45;22.40;;;;;;;-1.88;95.98;99587.13;1714757;83;25426;-58
2022/12/09 06:11:20;;;;;;;50.23;24.02;;;;;;;-1.86;96.16;99588.73;1689284;83;25661;-58
2022/12/09 06:13:48;;;;;;;45.67;22.52;;;;;;;-1.89;96.28;99588.19;1714908;83;25647;-59
2022/12/09 06:16:18;;;;;;;47.10;22.90;;;;;;;-1.90;96.20;99581.27;1714916;83;25446;-59
2022/12/09 06:18:46;;;;;;;52.65;24.10;;;;;;;-1.90;96.41;99586.57;1714808;83;27469;-59
2022/12/09 06:21:16;;;;;;;51.35;23.70;;;;;;;-1.88;96.47;99587.66;1714799;83;25581;-56
2022/12/09 06:23:44;;;;;;;50.20;23.75;;;;;;;-1.90;96.44;99589.22;1714893;83;25495;-54
2022/12/09 06:26:19;;;;;;;49.70;23.77;;;;;;;-1.89;96.46;99592.67;1714756;83;25633;-58
2022/12/09 06:28:46;;;;;;;54.30;24.82;;;;;;;-1.89;96.51;99595.31;1714984;83;25630;-54
2022/12/09 06:31:14;;;;;;;51.53;24.80;;;;;;;-1.90;96.39;99597.17;1714874;83;27723;-54
2022/12/09 06:33:41;;;;;;;54.30;25.25;;;;;;;-1.91;96.34;99596.91;1714723;82;27198;-55
2022/12/09 06:36:09;;;;;;;55.55;24.32;;;;;;;-1.91;96.30;99598.74;1714815;83;25459;-55
2022/12/09 06:38:36;;;;;;;40.77;17.50;;;;;;;-1.91;96.33;99603.54;1715026;83;25603;-55
2022/12/09 06:41:09;;;;;;;53.15;25.48;;;;;;;-1.90;96.26;99605.66;1714791;83;25374;-56
2022/12/09 06:43:38;;;;;;;54.93;26.40;;;;;;;-1.90;96.12;99604.33;1714818;83;27324;-55
2022/12/09 06:46:24;;;;;;;51.00;24.90;;;;;;;-1.92;95.82;99606.43;1714817;83;25733;-55
2022/12/09 06:48:53;;;;;;;48.50;23.62;;;;;;;-1.94;95.56;99611.97;1714829;83;25487;-58
2022/12/09 06:51:22;;;;;;;55.33;25.27;;;;;;;-1.99;95.12;99608.42;1714894;83;25418;-57
2022/12/09 06:53:48;;;;;;;50.60;25.17;;;;;;;-2.01;94.97;99613.17;1715082;83;25579;-58
2022/12/09 06:56:16;;;;;;;49.90;24.47;;;;;;;-2.07;94.73;99610.44;1714815;83;27372;-60
2022/12/09 06:58:45;;;;;;;51.85;24.98;;;;;;;-2.11;94.58;99611.98;1714712;83;25565;-59
2022/12/09 07:01:19;;;;;;;50.80;24.15;;;;;;;-2.14;94.44;99605.84;1714937;83;25658;-58
2022/12/09 07:03:51;;;;;;;53.13;25.88;;;;;;;-2.16;94.47;99607.11;1714785;83;25817;-59
2022/12/09 07:06:37;;;;;;;48.80;23.75;;;;;;;-2.17;94.54;99610.82;1714305;83;25641;-60
2022/12/09 07:09:14;;;;;;;48.78;23.45;;;;;;;-2.18;94.45;99606.55;1714826;83;27285;-60
2022/12/09 07:11:44;;;;;;;52.45;24.98;;;;;;;-2.21;94.34;99605.20;1714800;83;25406;-59
2022/12/09 07:14:13;;;;;;;47.03;22.93;;;;;;;-2.23;94.32;99602.00;1714858;83;25446;-60
2022/12/09 07:16:41;;;;;;;47.20;22.32;;;;;;;-2.24;94.44;99600.38;1714730;83;25662;-58
2022/12/09 07:19:18;;;;;;;50.50;23.15;;;;;;;-2.25;94.48;99596.11;1714881;83;25591;-56
2022/12/09 07:21:45;;;;;;;46.55;22.90;;;;;;;-2.24;94.58;99599.59;1714949;83;27342;-53
2022/12/09 07:24:11;;;;;;;50.45;23.80;;;;;;;-2.22;94.77;99596.16;1714788;83;25642;-55
2022/12/09 07:26:38;;;;;;;50.43;24.30;;;;;;;-2.19;95.09;99593.84;1714786;83;25625;-54
2022/12/09 07:29:06;;;;;;;47.08;22.73;;;;;;;-2.16;95.30;99594.69;1714764;83;26018;-52
2022/12/09 07:31:34;;;;;;;52.30;24.90;;;;;;;-2.11;95.30;99587.31;1714968;83;25696;-55
2022/12/09 07:34:00;;;;;;;54.30;22.93;;;;;;;-2.09;95.17;99591.87;1690268;83;27202;-52
2022/12/09 07:36:29;;;;;;;54.58;25.57;;;;;;;-2.07;95.15;99597.20;1714911;83;25408;-54
2022/12/09 07:38:59;;;;;;;56.30;26.93;;;;;;;-2.05;95.02;99594.84;1715083;83;25627;-49
2022/12/09 07:41:26;;;;;;;61.65;27.42;;;;;;;-2.03;95.53;99592.73;1714891;83;25639;-52
2022/12/09 07:43:52;;;;;;;60.60;27.73;;;;;;;-1.95;96.13;99589.16;1714966;83;25430;-53
2022/12/09 07:46:21;;;;;;;61.37;28.23;;;;;;;-1.85;96.49;99596.98;1714919;82;27344;-50
2022/12/09 07:48:48;;;;;;;60.08;28.83;;;;;;;-1.75;96.78;99598.45;1714987;83;25422;-50
2022/12/09 07:51:15;;;;;;;47.70;23.75;;;;;;;-1.64;96.98;99595.41;1714892;83;25394;-54
2022/12/09 07:53:42;;;;;;;59.85;29.00;;;;;;;-1.52;97.45;99600.06;1714905;83;25636;-51
2022/12/09 07:56:13;;;;;;;60.67;27.85;;;;;;;-1.41;97.47;99605.79;1714316;83;25766;-51
2022/12/09 07:58:41;;;;;;;61.42;28.87;;;;;;;-1.29;97.41;99599.53;1714825;83;28288;-52
2022/12/09 08:01:11;;;;;;;57.90;29.25;;;;;;;-1.13;98.13;99603.45;1714817;83;25767;-53
2022/12/09 08:03:41;;;;;;;63.65;29.82;;;;;;;-0.98;98.41;99597.52;1714943;83;25476;-52
2022/12/09 08:06:15;;;;;;;61.83;29.20;;;;;;;-0.80;98.17;99598.22;1690251;83;25650;-50
2022/12/09 08:08:43;;;;;;;71.28;32.70;;;;;;;-0.53;99.73;99594.22;1714397;83;25605;-52
2022/12/09 08:11:14;;;;;;;70.45;33.15;;;;;;;-0.20;100.00;99593.71;1714900;83;27389;-53
2022/12/09 08:13:41;;;;;;;71.82;34.60;;;;;;;0.11;100.00;99592.05;1713703;83;25508;-49
2022/12/09 08:16:10;;;;;;;69.72;35.00;;;;;;;0.45;100.00;99598.90;1690224;83;25567;-49
2022/12/09 08:18:37;;;;;;;69.65;34.40;;;;;;;0.88;100.00;99604.92;1715003;83;34774;-50
2022/12/09 08:21:07;;;;;;;63.02;31.80;;;;;;;1.25;100.00;99594.09;1690234;83;25431;-50
2022/12/09 08:23:34;;;;;;;62.33;29.90;;;;;;;1.58;100.00;99601.32;1714575;83;27394;-50
2022/12/09 08:26:00;;;;;;;69.15;31.80;;;;;;;1.87;100.00;99598.13;1690093;83;25897;-50
2022/12/09 08:28:29;;;;;;;62.78;31.87;;;;;;;2.28;100.00;99607.40;1714887;83;25554;-50
2022/12/09 08:30:56;;;;;;;62.23;31.87;;;;;;;2.56;99.46;99611.34;1714866;83;25544;-50
2022/12/09 08:33:23;;;;;;;62.67;32.98;;;;;;;3.04;100.00;99608.75;1714992;83;25567;-51
2022/12/09 08:35:49;;;;;;;60.70;31.10;;;;;;;3.36;99.66;99610.96;1714846;83;27398;-51
2022/12/09 08:38:16;;;;;;;59.05;30.88;;;;;;;3.84;100.00;99608.45;1714785;83;25573;-52
2022/12/09 08:40:42;;;;;;;62.43;31.42;;;;;;;4.20;98.70;99607.34;1714938;82;25484;-53
2022/12/09 08:43:08;;;;;;;61.33;31.57;;;;;;;4.35;95.15;99611.20;1714854;83;25498;-53
2022/12/09 08:45:38;;;;;;;57.95;31.85;;;;;;;4.80;98.11;99607.75;1714946;83;25619;-51
2022/12/09 08:48:07;;;;;;;56.85;29.95;;;;;;;5.19;95.96;99616.62;1715015;83;27522;-50
2022/12/09 08:50:34;;;;;;;55.50;29.40;;;;;;;5.33;92.98;99609.46;1714972;83;25653;-50
2022/12/09 08:53:01;;;;;;;54.30;29.95;;;;;;;5.08;89.24;99608.48;1714899;83;25587;-49
2022/12/09 08:55:29;;;;;;;53.02;30.00;;;;;;;4.72;87.07;99603.58;1714934;83;25637;-49
2022/12/09 08:57:58;;;;;;;58.98;28.60;;;;;;;4.39;86.00;99612.77;1714922;83;25671;-53
2022/12/09 09:00:25;;;;;;;62.40;30.57;;;;;;;4.07;85.94;99613.62;1714860;83;27478;-50
2022/12/09 09:02:53;;;;;;;58.10;30.97;;;;;;;3.82;85.97;99610.62;1714779;83;27205;-52
2022/12/09 09:05:19;;;;;;;59.38;30.35;;;;;;;3.54;85.47;99606.81;1714890;83;25597;-49
2022/12/09 09:07:46;;;;;;;54.63;29.20;;;;;;;3.28;85.71;99606.98;1714827;83;26141;-50
2022/12/09 09:10:12;;;;;;;57.83;30.25;;;;;;;3.05;86.05;99604.46;1714884;83;25428;-49
2022/12/09 09:12:39;;;;;;;63.58;31.52;;;;;;;2.85;86.12;99610.70;1714934;83;27423;-49
2022/12/09 09:15:09;;;;;;;56.13;29.80;;;;;;;2.60;86.18;99604.37;1714618;83;25782;-50
2022/12/09 09:17:36;;;;;;;;;;;;;;;2.40;86.49;99603.92;1692789;83;25665;-52
2022/12/09 09:20:05;;;;;;;52.15;29.02;;;;;;;2.21;86.73;99604.22;1714842;83;25757;-51
2022/12/09 09:22:33;;;;;;;55.12;29.77;;;;;;;2.09;87.50;99609.84;1715004;83;25420;-50
2022/12/09 09:25:00;;;;;;;62.20;29.50;;;;;;;1.98;87.86;99603.73;1714822;83;27447;-49
2022/12/09 09:27:26;;;;;;;61.10;31.37;;;;;;;1.91;88.09;99599.72;1714771;83;27152;-50
2022/12/09 09:29:54;;;;;;;65.03;31.52;;;;;;;1.75;87.89;99607.72;1714805;83;25658;-49
2022/12/09 09:32:22;;;;;;;61.68;32.55;;;;;;;1.61;88.11;99603.46;1714827;83;25732;-50
2022/12/09 09:34:51;;;;;;;61.33;33.15;;;;;;;1.46;88.31;99596.27;1714219;83;25510;-49
2022/12/09 09:37:18;;;;;;;72.03;34.40;;;;;;;1.37;88.71;99600.52;1692798;83;27237;-49
2022/12/09 09:39:44;;;;;;;67.27;35.40;;;;;;;1.30;89.17;99598.64;1712959;83;25672;-48
2022/12/09 09:42:22;;;;;;;67.87;32.93;;;;;;;1.23;89.50;99596.77;1712993;82;25422;-52
2022/12/09 09:44:53;;;;;;;76.97;34.57;;;;;;;1.13;89.40;99602.88;1713269;83;25800;-57
2022/12/09 09:47:31;;;;;;;70.37;33.38;;;;;;;1.05;89.75;99604.17;1713008;83;25485;-55
2022/12/09 09:50:20;;;;;;;67.00;34.03;;;;;;;0.98;89.85;99600.17;1713037;83;27364;-55
2022/12/09 09:52:49;;;;;;;66.25;32.13;;;;;;;0.93;90.17;99595.08;1698640;84;25835;-55
2022/12/09 09:55:21;;;;;;;66.22;33.15;;;;;;;0.86;90.16;99596.41;1702947;84;25429;-56
2022/12/09 09:58:18;;;;;;;63.92;33.02;;;;;;;0.78;90.49;99589.70;1715257;83;25690;-53
2022/12/09 10:01:10;;;;;;;66.60;32.85;;;;;;;0.76;90.79;99591.05;1714346;83;25547;-57
2022/12/09 10:04:00;;;;;;;72.60;34.75;;;;;;;0.75;91.36;99591.58;1684772;83;27348;-57
2022/12/09 10:07:00;;;;;;;63.23;33.30;;;;;;;0.77;91.72;99592.62;1715570;83;25638;-56
2022/12/09 10:09:49;;;;;;;68.42;32.98;;;;;;;0.78;91.97;99591.58;1712465;83;25572;-56
2022/12/09 10:13:04;;;;;;;70.55;35.80;;;;;;;0.80;91.98;99595.59;1712614;83;25777;-53
2022/12/09 10:15:38;;;;;;;65.32;33.65;;;;;;;0.80;92.09;99592.94;1712090;83;25462;-57
2022/12/09 10:18:34;;;;;;;67.78;33.65;;;;;;;0.77;92.02;99593.95;1711961;83;27326;-56
2022/12/09 10:21:01;;;;;;;63.92;34.43;;;;;;;0.80;92.26;99598.77;1711718;83;25636;-57
2022/12/09 10:23:31;;;;;;;72.08;35.17;;;;;;;0.80;92.24;99599.59;1713023;83;25622;-57
2022/12/09 10:26:03;;;;;;;70.57;35.55;;;;;;;0.81;92.55;99595.84;1712956;83;25650;-53
2022/12/09 10:28:36;;;;;;;69.80;35.23;;;;;;;0.86;93.16;99593.73;1713016;83;25400;-53
2022/12/09 10:31:04;;;;;;;67.03;34.05;;;;;;;0.91;93.25;99593.22;1712996;83;27499;-53
2022/12/09 10:33:35;;;;;;;63.58;33.15;;;;;;;0.95;93.37;99594.82;1712921;83;25497;-51
2022/12/09 10:36:03;;;;;;;67.40;32.78;;;;;;;1.02;93.35;99587.41;1694993;83;25482;-53
2022/12/09 10:38:32;;;;;;;72.35;35.85;;;;;;;1.03;92.87;99582.33;1716778;83;25554;-56
2022/12/09 10:44:23;;;;;;;59.67;32.08;;;;;;;1.22;93.63;99589.30;1715207;83;27340;-54
2022/12/09 10:47:04;;;;;;;60.35;31.77;;;;;;;1.42;94.32;99584.53;1716687;83;25642;-52
2022/12/09 10:49:35;;;;;;;66.82;33.85;;;;;;;1.51;93.88;99581.34;1716873;83;25486;-53
2022/12/09 10:52:03;;;;;;;65.15;32.55;;;;;;;1.60;94.03;99585.06;1716784;83;26307;-51
2022/12/09 10:54:37;;;;;;;67.10;32.48;;;;;;;1.67;93.96;99589.62;1716855;83;25575;-52
2022/12/09 10:57:19;;;;;;;66.95;33.78;;;;;;;1.68;93.28;99589.33;1716844;83;28023;-52
2022/12/09 11:00:23;;;;;;;61.08;31.35;;;;;;;1.70;92.82;99595.73;1716106;83;25705;-52
2022/12/09 11:02:54;;;;;;;67.32;32.45;;;;;;;1.72;92.37;99597.62;1715651;83;25754;-53
2022/12/09 11:05:28;;;;;;;65.67;32.60;;;;;;;1.71;92.38;99587.22;1715831;83;25868;-50
2022/12/09 11:07:57;;;;;;;63.87;32.73;;;;;;;1.72;92.19;99592.28;1715936;83;25710;-55
2022/12/09 11:10:27;;;;;;;66.95;32.53;;;;;;;1.74;92.06;99587.48;1716126;83;27533;-55
2022/12/09 11:13:05;;;;;;;67.12;31.30;;;;;;;1.69;91.70;99590.15;1715837;83;25713;-55
2022/12/09 11:15:41;;;;;;;61.53;32.55;;;;;;;1.67;91.92;99586.95;1716771;83;25619;-55
2022/12/09 11:18:26;;;;;;;63.68;32.42;;;;;;;1.68;92.13;99584.53;1717308;83;25631;-52
2022/12/09 11:21:00;;;;;;;65.95;33.35;;;;;;;1.76;93.06;99587.22;1716958;83;25476;-52
2022/12/09 11:23:28;;;;;;;63.23;33.18;;;;;;;1.83;93.18;99588.53;1716936;83;28097;-51
2022/12/09 11:26:04;;;;;;;69.55;33.23;;;;;;;1.91;93.23;99581.05;1716914;83;25338;-55
2022/12/09 11:28:36;;;;;;;62.17;32.73;;;;;;;1.98;93.02;99582.39;1716846;83;25663;-51
2022/12/09 11:31:16;;;;;;;64.70;34.15;;;;;;;2.07;92.83;99577.84;1716221;83;25629;-54
2022/12/09 11:33:57;;;;;;;63.90;32.15;;;;;;;2.12;92.87;99580.50;1716963;83;25386;-51
2022/12/09 11:36:37;;;;;;;61.37;32.60;;;;;;;2.13;92.79;99572.74;1721258;83;27422;-51
2022/12/09 11:39:33;;;;;;;67.15;33.10;;;;;;;2.35;95.26;99584.43;1715302;83;25407;-50
2022/12/09 11:42:17;;;;;;;60.80;30.70;;;;;;;2.72;97.07;99581.36;1714867;83;25577;-51